SAA38 FAOR-FBSK
Flight info
| Callsign | SAA38 |
|---|---|
| Flight time | 0h 34m |
| Altitude | 26000 |
| Route | VASUR3A VASUR UQ24 DUSLI DUSLI2C |
| Aircraft | A320/M-SDE3FGHIRWY/LB1 |
Departure
| Time | 2026-04-26 14:44 |
|---|---|
| Airport | O.R. Tambo International Airport (FAOR) |
Arrival
| Time | 2026-04-26 15:19 |
|---|---|
| Airport | Sir Seretse Khama International Airport (FBSK) |
| Time | Latitude | Longitude | Altitude | Speed | Heading |
|---|---|---|---|---|---|
| 2026-04-26 14:21 | -26.12899 | 28.23314 | 5550 ft | 0 kts | 186° |
| 2026-04-26 14:34 | -26.12880 | 28.23318 | 5550 ft | 4 kts | 207° |
| 2026-04-26 14:34 | -26.12859 | 28.23335 | 5548 ft | 4 kts | 216° |
| 2026-04-26 14:35 | -26.12837 | 28.23351 | 5547 ft | 4 kts | 203° |
| 2026-04-26 14:35 | -26.12811 | 28.23359 | 5551 ft | 4 kts | 177° |
| 2026-04-26 14:35 | -26.12788 | 28.23351 | 5549 ft | 3 kts | 137° |
| 2026-04-26 14:35 | -26.12793 | 28.23359 | 5547 ft | 4 kts | 122° |
| 2026-04-26 14:36 | -26.12799 | 28.23387 | 5547 ft | 4 kts | 98° |
| 2026-04-26 14:36 | -26.12802 | 28.23417 | 5547 ft | 3 kts | 96° |
| 2026-04-26 14:36 | -26.12802 | 28.23420 | 5547 ft | 1 kts | 96° |
| 2026-04-26 14:38 | -26.12807 | 28.23466 | 5550 ft | 13 kts | 98° |
| 2026-04-26 14:38 | -26.12817 | 28.23574 | 5546 ft | 14 kts | 95° |
| 2026-04-26 14:38 | -26.12829 | 28.23687 | 5548 ft | 12 kts | 98° |
| 2026-04-26 14:39 | -26.12851 | 28.23770 | 5549 ft | 12 kts | 138° |
| 2026-04-26 14:39 | -26.12938 | 28.23759 | 5548 ft | 14 kts | 195° |
| 2026-04-26 14:39 | -26.13036 | 28.23730 | 5547 ft | 15 kts | 194° |
| 2026-04-26 14:39 | -26.13139 | 28.23698 | 5548 ft | 16 kts | 195° |
| 2026-04-26 14:40 | -26.13260 | 28.23661 | 5548 ft | 20 kts | 195° |
| 2026-04-26 14:40 | -26.13395 | 28.23619 | 5552 ft | 19 kts | 196° |
| 2026-04-26 14:40 | -26.13524 | 28.23578 | 5551 ft | 20 kts | 196° |
| 2026-04-26 14:40 | -26.13656 | 28.23537 | 5553 ft | 20 kts | 195° |
| 2026-04-26 14:41 | -26.13781 | 28.23499 | 5558 ft | 18 kts | 195° |
| 2026-04-26 14:41 | -26.13899 | 28.23462 | 5560 ft | 18 kts | 195° |
| 2026-04-26 14:41 | -26.14016 | 28.23426 | 5562 ft | 17 kts | 195° |
| 2026-04-26 14:41 | -26.14122 | 28.23394 | 5564 ft | 16 kts | 196° |
| 2026-04-26 14:42 | -26.14238 | 28.23356 | 5564 ft | 18 kts | 196° |
| 2026-04-26 14:42 | -26.14362 | 28.23317 | 5565 ft | 19 kts | 196° |
| 2026-04-26 14:42 | -26.14494 | 28.23279 | 5564 ft | 21 kts | 193° |
| 2026-04-26 14:42 | -26.14587 | 28.23306 | 5565 ft | 10 kts | 137° |
| 2026-04-26 14:43 | -26.14613 | 28.23379 | 5567 ft | 11 kts | 103° |
| 2026-04-26 14:43 | -26.14597 | 28.23449 | 5567 ft | 10 kts | 26° |
| 2026-04-26 14:43 | -26.14568 | 28.23458 | 5566 ft | 0 kts | 15° |
| 2026-04-26 14:43 | -26.14517 | 28.23474 | 5566 ft | 26 kts | 15° |
| 2026-04-26 14:44 | -26.14111 | 28.23598 | 5566 ft | 92 kts | 15° |
| 2026-04-26 14:44 | -26.13325 | 28.23841 | 5550 ft | 145 kts | 14° |
| 2026-04-26 14:44 | -26.12182 | 28.24208 | 5612 ft | 182 kts | 19° |
| 2026-04-26 14:44 | -26.11000 | 28.24607 | 6296 ft | 179 kts | 13° |
| 2026-04-26 14:45 | -26.09821 | 28.24978 | 6900 ft | 180 kts | 11° |
| 2026-04-26 14:45 | -26.09000 | 28.25221 | 7271 ft | 181 kts | 12° |
| 2026-04-26 14:45 | -26.07304 | 28.25742 | 7580 ft | 205 kts | 12° |
| 2026-04-26 14:45 | -26.05828 | 28.25947 | 7730 ft | 223 kts | 347° |
| 2026-04-26 14:46 | -26.04467 | 28.25075 | 7875 ft | 239 kts | 306° |
| 2026-04-26 14:46 | -26.03663 | 28.23380 | 8119 ft | 260 kts | 291° |
| 2026-04-26 14:46 | -26.02975 | 28.21427 | 8568 ft | 277 kts | 289° |
| 2026-04-26 14:46 | -26.02309 | 28.19395 | 9305 ft | 282 kts | 288° |
| 2026-04-26 14:47 | -26.01397 | 28.17458 | 9980 ft | 291 kts | 310° |
| 2026-04-26 14:47 | -25.99751 | 28.16075 | 10554 ft | 304 kts | 326° |
| 2026-04-26 14:47 | -25.97856 | 28.14836 | 10746 ft | 328 kts | 328° |
| 2026-04-26 14:47 | -25.95820 | 28.13589 | 11174 ft | 339 kts | 329° |
| 2026-04-26 14:48 | -25.93732 | 28.12345 | 11787 ft | 343 kts | 330° |
| 2026-04-26 14:48 | -25.91614 | 28.11082 | 12473 ft | 345 kts | 330° |
| 2026-04-26 14:48 | -25.89493 | 28.09802 | 13147 ft | 348 kts | 329° |
| 2026-04-26 14:48 | -25.87372 | 28.08509 | 13794 ft | 351 kts | 329° |
| 2026-04-26 14:49 | -25.85227 | 28.07189 | 14402 ft | 353 kts | 329° |
| 2026-04-26 14:49 | -25.83064 | 28.05850 | 14960 ft | 356 kts | 329° |
| 2026-04-26 14:49 | -25.80924 | 28.04522 | 15505 ft | 359 kts | 328° |
| 2026-04-26 14:49 | -25.78735 | 28.03167 | 16055 ft | 362 kts | 328° |
| 2026-04-26 14:50 | -25.76526 | 28.01800 | 16594 ft | 365 kts | 328° |
| 2026-04-26 14:50 | -25.74293 | 28.00417 | 17100 ft | 369 kts | 328° |
| 2026-04-26 14:50 | -25.72052 | 27.99030 | 17609 ft | 373 kts | 328° |
| 2026-04-26 14:50 | -25.69739 | 27.97601 | 18156 ft | 376 kts | 328° |
| 2026-04-26 14:51 | -25.67477 | 27.96206 | 18569 ft | 379 kts | 328° |
| 2026-04-26 14:51 | -25.65157 | 27.94776 | 19109 ft | 382 kts | 328° |
| 2026-04-26 14:51 | -25.62825 | 27.93343 | 19577 ft | 384 kts | 328° |
| 2026-04-26 14:51 | -25.60486 | 27.91909 | 20053 ft | 387 kts | 328° |
| 2026-04-26 14:52 | -25.58174 | 27.90358 | 20533 ft | 387 kts | 320° |
| 2026-04-26 14:52 | -25.56187 | 27.88372 | 20994 ft | 385 kts | 308° |
| 2026-04-26 14:52 | -25.54612 | 27.85999 | 21470 ft | 384 kts | 297° |
| 2026-04-26 14:52 | -25.53307 | 27.83410 | 21954 ft | 386 kts | 296° |
| 2026-04-26 14:53 | -25.51994 | 27.80803 | 22437 ft | 388 kts | 296° |
| 2026-04-26 14:53 | -25.50672 | 27.78189 | 22916 ft | 390 kts | 296° |
| 2026-04-26 14:53 | -25.49341 | 27.75567 | 23407 ft | 393 kts | 296° |
| 2026-04-26 14:53 | -25.47997 | 27.72927 | 23866 ft | 396 kts | 296° |
| 2026-04-26 14:54 | -25.46637 | 27.70260 | 24251 ft | 397 kts | 296° |
| 2026-04-26 14:54 | -25.45284 | 27.67603 | 24663 ft | 398 kts | 296° |
| 2026-04-26 14:54 | -25.43918 | 27.64918 | 25078 ft | 399 kts | 296° |
| 2026-04-26 14:54 | -25.42572 | 27.62271 | 25475 ft | 400 kts | 295° |
| 2026-04-26 14:55 | -25.41188 | 27.59548 | 25876 ft | 401 kts | 295° |
| 2026-04-26 14:55 | -25.39823 | 27.56863 | 26133 ft | 401 kts | 295° |
| 2026-04-26 14:55 | -25.38459 | 27.54183 | 26196 ft | 392 kts | 295° |
| 2026-04-26 14:55 | -25.37141 | 27.51611 | 26205 ft | 384 kts | 295° |
| 2026-04-26 14:56 | -25.35834 | 27.49053 | 26206 ft | 381 kts | 295° |
| 2026-04-26 14:56 | -25.34531 | 27.46499 | 26204 ft | 380 kts | 295° |
| 2026-04-26 14:56 | -25.33228 | 27.43939 | 26201 ft | 381 kts | 295° |
| 2026-04-26 14:56 | -25.31938 | 27.41401 | 26198 ft | 381 kts | 295° |
| 2026-04-26 14:57 | -25.30649 | 27.38868 | 26202 ft | 382 kts | 295° |
| 2026-04-26 14:57 | -25.29343 | 27.36311 | 26202 ft | 382 kts | 295° |
| 2026-04-26 14:57 | -25.28033 | 27.33756 | 26199 ft | 382 kts | 295° |
| 2026-04-26 14:57 | -25.26721 | 27.31203 | 26200 ft | 382 kts | 295° |
| 2026-04-26 14:58 | -25.25414 | 27.28658 | 26203 ft | 382 kts | 295° |
| 2026-04-26 14:58 | -25.24099 | 27.26095 | 26199 ft | 382 kts | 295° |
| 2026-04-26 14:58 | -25.22786 | 27.23538 | 26199 ft | 382 kts | 295° |
| 2026-04-26 14:58 | -25.21477 | 27.20988 | 26200 ft | 382 kts | 295° |
| 2026-04-26 14:59 | -25.20187 | 27.18420 | 26204 ft | 382 kts | 294° |
| 2026-04-26 14:59 | -25.18994 | 27.15808 | 26209 ft | 381 kts | 291° |
| 2026-04-26 14:59 | -25.17870 | 27.13161 | 26209 ft | 380 kts | 290° |
| 2026-04-26 14:59 | -25.17147 | 27.11405 | 26201 ft | 380 kts | 290° |
| 2026-04-26 15:00 | -25.15691 | 27.07851 | 26202 ft | 381 kts | 290° |
| 2026-04-26 15:00 | -25.14585 | 27.05186 | 26206 ft | 381 kts | 290° |
| 2026-04-26 15:00 | -25.13467 | 27.02528 | 26206 ft | 381 kts | 291° |
| 2026-04-26 15:00 | -25.12340 | 26.99879 | 26196 ft | 382 kts | 291° |
| 2026-04-26 15:01 | -25.11207 | 26.97235 | 26201 ft | 382 kts | 291° |
| 2026-04-26 15:01 | -25.10064 | 26.94580 | 26200 ft | 382 kts | 291° |
| 2026-04-26 15:01 | -25.08938 | 26.91968 | 26199 ft | 382 kts | 291° |
| 2026-04-26 15:01 | -25.07802 | 26.89327 | 26202 ft | 383 kts | 291° |
| 2026-04-26 15:02 | -25.06656 | 26.86664 | 26202 ft | 383 kts | 291° |
| 2026-04-26 15:02 | -25.05523 | 26.84034 | 26038 ft | 378 kts | 291° |
| 2026-04-26 15:02 | -25.04405 | 26.81443 | 25801 ft | 371 kts | 291° |
| 2026-04-26 15:02 | -25.03307 | 26.78896 | 25568 ft | 364 kts | 291° |
| 2026-04-26 15:03 | -25.02223 | 26.76382 | 25346 ft | 361 kts | 291° |
| 2026-04-26 15:03 | -25.01151 | 26.73889 | 25124 ft | 360 kts | 291° |
| 2026-04-26 15:03 | -25.00082 | 26.71404 | 24894 ft | 359 kts | 291° |
| 2026-04-26 15:03 | -24.99007 | 26.68911 | 24673 ft | 359 kts | 291° |
| 2026-04-26 15:04 | -24.97934 | 26.66425 | 24457 ft | 357 kts | 291° |
| 2026-04-26 15:04 | -24.96766 | 26.64034 | 24125 ft | 356 kts | 298° |
| 2026-04-26 15:04 | -24.95444 | 26.61728 | 23653 ft | 357 kts | 298° |
| 2026-04-26 15:04 | -24.94114 | 26.59413 | 23173 ft | 357 kts | 298° |
| 2026-04-26 15:05 | -24.92787 | 26.57107 | 22718 ft | 355 kts | 299° |
| 2026-04-26 15:05 | -24.92355 | 26.56357 | 22566 ft | 355 kts | 298° |
| 2026-04-26 15:05 | -24.90147 | 26.52518 | 21827 ft | 353 kts | 298° |
| 2026-04-26 15:05 | -24.88855 | 26.50270 | 21388 ft | 353 kts | 299° |
| 2026-04-26 15:06 | -24.87531 | 26.47967 | 20937 ft | 352 kts | 299° |
| 2026-04-26 15:06 | -24.86234 | 26.45715 | 20497 ft | 351 kts | 299° |
| 2026-04-26 15:06 | -24.84933 | 26.43451 | 20053 ft | 351 kts | 299° |
| 2026-04-26 15:06 | -24.83628 | 26.41181 | 19615 ft | 350 kts | 299° |
| 2026-04-26 15:07 | -24.81038 | 26.36686 | 18739 ft | 349 kts | 300° |
| 2026-04-26 15:07 | -24.79720 | 26.34409 | 18267 ft | 349 kts | 300° |
| 2026-04-26 15:07 | -24.78414 | 26.32153 | 17807 ft | 347 kts | 300° |
| 2026-04-26 15:08 | -24.77128 | 26.29926 | 17379 ft | 345 kts | 300° |
| 2026-04-26 15:08 | -24.75846 | 26.27702 | 16943 ft | 343 kts | 300° |
| 2026-04-26 15:08 | -24.74568 | 26.25490 | 16506 ft | 341 kts | 300° |
| 2026-04-26 15:08 | -24.73303 | 26.23302 | 16092 ft | 338 kts | 300° |
| 2026-04-26 15:09 | -24.72040 | 26.21120 | 15668 ft | 337 kts | 300° |
| 2026-04-26 15:09 | -24.70788 | 26.18958 | 15256 ft | 335 kts | 301° |
| 2026-04-26 15:09 | -24.69542 | 26.16798 | 14831 ft | 333 kts | 300° |
| 2026-04-26 15:09 | -24.68606 | 26.14505 | 14426 ft | 329 kts | 284° |
| 2026-04-26 15:10 | -24.68277 | 26.12029 | 14017 ft | 326 kts | 269° |
| 2026-04-26 15:10 | -24.68402 | 26.10382 | 13706 ft | 325 kts | 260° |
| 2026-04-26 15:10 | -24.68920 | 26.07154 | 13148 ft | 322 kts | 260° |
| 2026-04-26 15:10 | -24.69305 | 26.04714 | 12735 ft | 320 kts | 260° |
| 2026-04-26 15:11 | -24.69683 | 26.02310 | 12343 ft | 317 kts | 260° |
| 2026-04-26 15:11 | -24.70053 | 25.99948 | 11941 ft | 316 kts | 260° |
| 2026-04-26 15:11 | -24.70429 | 25.97542 | 11536 ft | 315 kts | 260° |
| 2026-04-26 15:11 | -24.70791 | 25.95213 | 11144 ft | 313 kts | 260° |
| 2026-04-26 15:12 | -24.71164 | 25.92822 | 10852 ft | 308 kts | 260° |
| 2026-04-26 15:12 | -24.71514 | 25.90575 | 10712 ft | 298 kts | 260° |
| 2026-04-26 15:12 | -24.71860 | 25.88360 | 10226 ft | 291 kts | 259° |
| 2026-04-26 15:12 | -24.72198 | 25.86177 | 9636 ft | 289 kts | 260° |
| 2026-04-26 15:13 | -24.72539 | 25.83992 | 9292 ft | 287 kts | 260° |
| 2026-04-26 15:13 | -24.72858 | 25.81853 | 9166 ft | 278 kts | 264° |
| 2026-04-26 15:13 | -24.72684 | 25.79788 | 9035 ft | 269 kts | 287° |
| 2026-04-26 15:13 | -24.71812 | 25.77993 | 8635 ft | 270 kts | 311° |
| 2026-04-26 15:14 | -24.70362 | 25.76714 | 8044 ft | 269 kts | 327° |
| 2026-04-26 15:14 | -24.68762 | 25.75616 | 7460 ft | 269 kts | 328° |
| 2026-04-26 15:14 | -24.67165 | 25.74583 | 7082 ft | 260 kts | 336° |
| 2026-04-26 15:14 | -24.65459 | 25.74317 | 6933 ft | 243 kts | 10° |
| 2026-04-26 15:15 | -24.63977 | 25.75067 | 6661 ft | 235 kts | 43° |
| 2026-04-26 15:15 | -24.63062 | 25.76519 | 6277 ft | 228 kts | 60° |
| 2026-04-26 15:15 | -24.62341 | 25.78006 | 5955 ft | 211 kts | 60° |
| 2026-04-26 15:15 | -24.61675 | 25.79372 | 5552 ft | 199 kts | 60° |
| 2026-04-26 15:16 | -24.61245 | 25.80247 | 5358 ft | 186 kts | 60° |
| 2026-04-26 15:16 | -24.60471 | 25.81819 | 5062 ft | 167 kts | 59° |
| 2026-04-26 15:16 | -24.59938 | 25.82900 | 4851 ft | 160 kts | 59° |
| 2026-04-26 15:16 | -24.59584 | 25.83617 | 4713 ft | 159 kts | 60° |
| 2026-04-26 15:17 | -24.58893 | 25.85019 | 4443 ft | 156 kts | 60° |
| 2026-04-26 15:17 | -24.58717 | 25.85375 | 4361 ft | 156 kts | 59° |
| 2026-04-26 15:17 | -24.58027 | 25.86779 | 4114 ft | 156 kts | 60° |
| 2026-04-26 15:17 | -24.57508 | 25.87822 | 3903 ft | 155 kts | 60° |
| 2026-04-26 15:18 | -24.56994 | 25.88858 | 3701 ft | 154 kts | 61° |
| 2026-04-26 15:18 | -24.56489 | 25.89883 | 3458 ft | 154 kts | 61° |
| 2026-04-26 15:18 | -24.55986 | 25.90912 | 3294 ft | 149 kts | 59° |
| 2026-04-26 15:18 | -24.55612 | 25.91794 | 3293 ft | 111 kts | 84° |
| 2026-04-26 15:19 | -24.55724 | 25.92541 | 3304 ft | 5 kts | 68° |
| 2026-04-26 15:19 | -24.55723 | 25.92540 | 3301 ft | 0 kts | 62° |